Time;durP1;ratioP1;P1;durP2;ratioP2;P2;SDS_P1;SDS_P2;PMS_P1;PMS_P2;Temp;Humidity;BMP_temperature;BMP_pressure;BME280_temperature;BME280_humidity;BME280_pressure;Samples;Min_cycle;Max_cycle;Signal;HPM_P1;HPM_P2
2022/03/26 00:01:51;;;;;;;30.05;17.83;;;;;;;10.59;56.00;103029.38;5035141;28;20498;-46
2022/03/26 00:04:19;;;;;;;29.23;19.05;;;;;;;10.48;56.33;103039.03;5047546;28;20044;-47
2022/03/26 00:06:47;;;;;;;32.85;19.38;;;;;;;10.42;56.70;103042.63;5034971;28;20053;-52
2022/03/26 00:09:14;;;;;;;29.77;18.48;;;;;;;10.42;56.64;103035.28;5034794;28;20049;-49
2022/03/26 00:11:42;;;;;;;35.83;19.58;;;;;;;10.43;56.83;103038.84;5034576;28;20048;-47
2022/03/26 00:14:11;;;;;;;37.50;19.20;;;;;;;10.35;56.88;103039.06;5035183;28;20049;-46
2022/03/26 00:16:38;;;;;;;32.13;19.13;;;;;;;10.29;57.34;103031.72;5033349;28;20060;-48
2022/03/26 00:19:07;;;;;;;34.97;18.98;;;;;;;10.33;56.96;103027.53;5034596;28;20450;-46
2022/03/26 00:21:35;;;;;;;29.65;19.02;;;;;;;10.32;57.19;103032.16;5034542;28;20077;-50
2022/03/26 00:24:03;;;;;;;32.83;19.42;;;;;;;10.30;57.24;103036.16;5039496;28;20051;-54
2022/03/26 00:26:30;;;;;;;32.53;19.90;;;;;;;10.30;57.31;103033.41;5048413;28;20514;-51
2022/03/26 00:28:58;;;;;;;31.80;19.83;;;;;;;10.16;57.76;103033.38;5034607;28;20053;-51
2022/03/26 00:31:26;;;;;;;33.75;18.92;;;;;;;10.17;57.67;103026.91;5034270;28;20037;-51
2022/03/26 00:33:54;;;;;;;30.85;18.35;;;;;;;10.13;58.00;103031.09;5037580;28;20045;-53
2022/03/26 00:36:22;;;;;;;31.42;19.00;;;;;;;10.19;57.75;103029.41;5034597;28;20415;-55
2022/03/26 00:38:49;;;;;;;30.27;19.08;;;;;;;10.23;57.76;103030.66;5032668;28;20044;-55
2022/03/26 00:41:17;;;;;;;35.45;18.25;;;;;;;10.23;57.93;103026.03;5016594;28;20045;-54
2022/03/26 00:43:45;;;;;;;31.65;18.05;;;;;;;10.28;57.58;103030.03;5043830;28;20048;-50
2022/03/26 00:46:13;;;;;;;34.25;18.95;;;;;;;10.18;57.61;103027.75;5053373;28;20052;-52
2022/03/26 00:48:43;;;;;;;33.03;18.30;;;;;;;10.15;57.82;103026.28;5052605;28;20043;-52
2022/03/26 00:51:10;;;;;;;31.45;18.55;;;;;;;10.12;58.05;103023.94;5052857;28;20384;-54
2022/03/26 00:53:38;;;;;;;36.05;19.35;;;;;;;10.08;58.17;103021.84;5036512;28;20160;-51
2022/03/26 00:56:05;;;;;;;28.35;17.83;;;;;;;9.99;58.81;103021.25;5032326;28;20110;-52
2022/03/26 00:58:33;;;;;;;33.97;18.63;;;;;;;9.96;58.69;103018.97;5033910;28;20052;-53
2022/03/26 01:01:01;;;;;;;30.27;17.27;;;;;;;9.92;58.96;103017.69;5033705;28;20037;-50
2022/03/26 01:03:29;;;;;;;30.88;18.75;;;;;;;9.97;59.08;103017.91;5042077;28;20041;-51
2022/03/26 01:05:57;;;;;;;28.38;17.85;;;;;;;10.01;58.81;103011.00;5053573;28;20103;-51
2022/03/26 01:08:24;;;;;;;30.30;18.58;;;;;;;10.08;58.62;103017.28;5053483;28;20086;-54
2022/03/26 01:10:52;;;;;;;32.30;19.08;;;;;;;10.05;58.52;103020.41;5051685;28;20052;-55
2022/03/26 01:13:20;;;;;;;31.83;18.05;;;;;;;9.98;58.57;103020.41;5036093;28;20196;-54
2022/03/26 01:15:47;;;;;;;28.48;18.05;;;;;;;9.94;58.78;103019.16;5032188;28;20514;-46
2022/03/26 01:18:15;;;;;;;30.45;18.65;;;;;;;9.89;59.04;103029.00;5032121;28;20427;-50
2022/03/26 01:20:43;;;;;;;36.83;19.25;;;;;;;9.84;59.17;103023.31;5033278;28;20087;-47
2022/03/26 01:23:10;;;;;;;29.23;18.02;;;;;;;9.58;59.84;103030.44;5035249;28;20068;-51
2022/03/26 01:25:38;;;;;;;30.27;19.17;;;;;;;9.52;60.14;103028.53;5033354;28;20072;-51
2022/03/26 01:28:06;;;;;;;32.85;18.02;;;;;;;9.46;60.52;103023.94;5033304;28;20045;-52
2022/03/26 01:30:34;;;;;;;28.55;16.13;;;;;;;9.48;60.23;103016.41;5033618;28;20041;-54
2022/03/26 01:33:02;;;;;;;31.83;16.73;;;;;;;9.42;60.83;103018.03;5039547;28;20458;-50
2022/03/26 01:35:29;;;;;;;30.25;16.50;;;;;;;9.42;60.98;103022.66;5053154;28;20045;-50
2022/03/26 01:38:01;;;;;;;31.52;17.30;;;;;;;9.35;61.10;103023.47;5052874;28;20045;-51
2022/03/26 01:40:29;;;;;;;33.15;17.88;;;;;;;9.38;61.07;103025.81;5053184;28;20041;-53
2022/03/26 01:42:56;;;;;;;29.30;17.30;;;;;;;9.36;60.63;103025.16;5036770;28;20037;-50
2022/03/26 01:45:24;;;;;;;31.63;17.42;;;;;;;9.35;61.14;103023.47;5051742;28;20049;-50
2022/03/26 01:47:52;;;;;;;27.92;16.63;;;;;;;9.39;60.87;103024.75;5051725;28;20072;-52
2022/03/26 01:50:19;;;;;;;26.85;16.00;;;;;;;9.41;60.89;103021.00;5050605;28;20044;-51
2022/03/26 01:52:47;;;;;;;27.45;15.27;;;;;;;9.37;60.46;103015.94;5040884;28;20049;-52
2022/03/26 01:55:16;;;;;;;28.80;15.85;;;;;;;9.37;60.87;103021.38;5051455;28;20057;-54
2022/03/26 01:57:44;;;;;;;27.25;15.70;;;;;;;9.36;60.68;103024.31;5052884;28;20495;-49
2022/03/26 02:00:13;;;;;;;25.55;16.27;;;;;;;9.37;60.88;103017.84;5052161;28;20049;-47
2022/03/26 02:02:45;;;;;;;32.95;16.88;;;;;;;9.43;60.94;103029.75;5051093;28;20059;-50
2022/03/26 02:05:15;;;;;;;32.17;16.25;;;;;;;9.47;60.53;103025.59;5052977;28;20052;-47
2022/03/26 02:07:45;;;;;;;31.33;17.20;;;;;;;9.48;60.57;103022.69;5051526;28;20047;-51
2022/03/26 02:10:15;;;;;;;30.80;17.02;;;;;;;9.48;60.54;103022.69;5039588;28;20041;-51
2022/03/26 02:12:45;;;;;;;31.63;18.42;;;;;;;9.37;60.37;103024.09;5041227;28;20522;-49
2022/03/26 02:15:15;;;;;;;28.95;17.23;;;;;;;9.32;60.89;103025.78;5031585;28;20503;-54
2022/03/26 02:17:43;;;;;;;29.23;16.95;;;;;;;9.34;61.10;103027.25;5035436;28;20049;-50
2022/03/26 02:20:13;;;;;;;27.42;17.50;;;;;;;9.28;61.10;103021.78;5020334;28;20042;-47
2022/03/26 02:22:40;;;;;;;32.65;17.42;;;;;;;9.26;61.36;103035.59;5036828;28;20053;-49
2022/03/26 02:25:09;;;;;;;30.30;17.35;;;;;;;9.26;61.13;103018.41;5035424;28;20128;-50
2022/03/26 02:27:37;;;;;;;30.45;16.70;;;;;;;9.28;61.50;103021.78;5035282;28;20052;-48
2022/03/26 02:30:06;;;;;;;31.00;17.17;;;;;;;9.32;61.59;103023.88;5036745;28;20065;-53
2022/03/26 02:32:34;;;;;;;24.88;16.67;;;;;;;9.30;61.57;103016.97;5047558;28;20041;-48
2022/03/26 02:35:02;;;;;;;32.53;17.52;;;;;;;9.25;61.55;103014.88;5055379;28;20045;-48
2022/03/26 02:37:31;;;;;;;29.85;17.67;;;;;;;9.22;61.18;103020.72;5042381;28;20037;-51
2022/03/26 02:40:00;;;;;;;36.10;18.27;;;;;;;9.19;61.05;103023.88;5036394;28;20080;-53
2022/03/26 02:42:28;;;;;;;30.42;17.30;;;;;;;9.07;61.93;103026.34;5036429;28;20095;-50
2022/03/26 02:44:55;;;;;;;28.35;16.42;;;;;;;9.09;61.66;103024.25;5036203;28;20057;-52
2022/03/26 02:47:23;;;;;;;26.48;16.70;;;;;;;9.05;62.08;103022.16;5045753;28;20410;-54
2022/03/26 02:49:51;;;;;;;26.52;16.23;;;;;;;9.00;62.34;103024.63;5056324;28;20076;-51
2022/03/26 02:52:18;;;;;;;28.73;16.92;;;;;;;8.99;62.64;103023.78;5055136;28;20041;-50
2022/03/26 02:54:46;;;;;;;28.70;17.10;;;;;;;9.15;62.23;103028.03;5034364;28;20061;-51
2022/03/26 02:57:14;;;;;;;31.00;17.33;;;;;;;9.17;62.00;103020.50;5035041;28;20037;-55
2022/03/26 02:59:41;;;;;;;33.15;17.65;;;;;;;9.25;61.35;103016.75;5036124;28;20045;-51
2022/03/26 03:02:09;;;;;;;29.88;17.38;;;;;;;9.27;60.96;103018.22;5036993;28;20045;-51
2022/03/26 03:04:38;;;;;;;28.05;17.38;;;;;;;9.22;61.71;103019.91;5037513;28;20377;-51
2022/03/26 03:07:06;;;;;;;28.52;17.10;;;;;;;9.21;61.91;103013.59;5054964;28;20052;-54
2022/03/26 03:09:34;;;;;;;31.38;17.10;;;;;;;9.23;61.32;103013.41;5055368;28;20045;-54
2022/03/26 03:12:01;;;;;;;29.63;17.55;;;;;;;9.19;61.26;103018.44;5055486;28;20495;-50
2022/03/26 03:14:29;;;;;;;35.13;16.83;;;;;;;9.15;61.72;103017.97;5055837;28;20048;-48
2022/03/26 03:16:57;;;;;;;32.72;16.65;;;;;;;9.09;61.62;103015.22;5050320;28;20495;-49
2022/03/26 03:19:25;;;;;;;28.60;17.13;;;;;;;9.07;61.67;103017.34;5035626;28;20091;-50
2022/03/26 03:21:53;;;;;;;30.17;17.50;;;;;;;9.01;62.14;103020.88;5036494;28;20049;-50
2022/03/26 03:24:21;;;;;;;35.15;18.30;;;;;;;8.93;61.87;103025.44;5035493;28;20514;-54
2022/03/26 03:26:49;;;;;;;31.33;17.50;;;;;;;8.95;61.93;103030.69;5035243;28;20088;-50
2022/03/26 03:29:17;;;;;;;31.90;16.13;;;;;;;8.86;62.59;103030.00;5035346;28;20423;-47
2022/03/26 03:31:47;;;;;;;28.42;16.52;;;;;;;8.89;62.79;103029.59;5036801;28;20049;-51
2022/03/26 03:34:15;;;;;;;32.47;17.08;;;;;;;8.95;61.98;103028.78;5046608;28;20041;-53
2022/03/26 03:36:43;;;;;;;31.77;17.58;;;;;;;8.98;61.82;103032.97;5053920;28;20079;-51
2022/03/26 03:39:10;;;;;;;28.90;17.63;;;;;;;8.98;62.32;103024.81;5055269;28;20047;-53
2022/03/26 03:41:38;;;;;;;28.65;16.55;;;;;;;8.93;61.62;103030.88;5050139;28;20419;-51
2022/03/26 03:44:06;;;;;;;31.98;16.70;;;;;;;8.70;62.96;103027.63;5044631;28;20048;-51
2022/03/26 03:46:34;;;;;;;30.65;16.48;;;;;;;8.60;63.41;103029.88;5035113;28;20050;-51
2022/03/26 03:49:03;;;;;;;29.77;17.65;;;;;;;8.61;63.36;103031.53;5017972;28;20033;-53
2022/03/26 03:51:31;;;;;;;34.50;18.17;;;;;;;8.55;63.26;103032.34;5036549;28;20037;-51
2022/03/26 03:53:59;;;;;;;26.92;16.58;;;;;;;8.57;63.62;103033.00;5051076;28;20047;-49
2022/03/26 03:56:27;;;;;;;30.60;18.02;;;;;;;8.68;63.16;103026.97;5034412;28;20551;-46
2022/03/26 03:58:54;;;;;;;38.10;18.10;;;;;;;8.70;63.07;103019.47;5034805;28;20053;-48
2022/03/26 04:01:22;;;;;;;35.15;18.48;;;;;;;8.76;62.85;103028.72;5034640;28;20037;-51
2022/03/26 04:03:50;;;;;;;30.10;17.95;;;;;;;8.70;62.99;103030.34;5036444;28;20095;-48
2022/03/26 04:06:17;;;;;;;30.33;18.30;;;;;;;8.68;62.89;103030.56;5034405;28;20236;-49
2022/03/26 04:08:45;;;;;;;31.80;17.92;;;;;;;8.69;62.87;103028.66;5034472;28;20056;-47
2022/03/26 04:11:13;;;;;;;30.13;16.33;;;;;;;8.65;63.07;103032.81;5033511;28;20120;-48
2022/03/26 04:13:41;;;;;;;31.20;16.52;;;;;;;8.63;62.53;103030.28;5034200;28;20442;-48
2022/03/26 04:16:08;;;;;;;29.70;17.15;;;;;;;8.63;62.72;103029.47;5032997;28;20051;-52
2022/03/26 04:18:36;;;;;;;31.45;17.77;;;;;;;8.64;62.53;103031.16;5033685;28;20195;-51
2022/03/26 04:21:04;;;;;;;33.33;17.30;;;;;;;8.66;63.02;103029.91;5034395;28;20049;-49
2022/03/26 04:23:31;;;;;;;28.60;18.05;;;;;;;8.68;62.93;103033.28;5034657;28;20037;-49
2022/03/26 04:25:59;;;;;;;32.10;16.95;;;;;;;8.67;62.87;103030.75;5033758;28;20050;-51
2022/03/26 04:28:26;;;;;;;26.92;17.42;;;;;;;8.57;62.42;103041.97;5034239;28;20049;-50
2022/03/26 04:30:54;;;;;;;30.55;17.88;;;;;;;8.51;62.90;103043.63;5033210;28;20069;-52
2022/03/26 04:33:22;;;;;;;35.08;18.88;;;;;;;8.46;62.68;103035.22;5034566;28;20076;-50
2022/03/26 04:35:50;;;;;;;29.67;17.73;;;;;;;8.48;63.03;103032.31;5033967;28;20061;-49
2022/03/26 04:38:17;;;;;;;31.35;17.73;;;;;;;8.39;63.14;103039.72;5031455;28;20038;-48
2022/03/26 04:40:45;;;;;;;32.92;18.42;;;;;;;8.39;63.15;103034.28;5033955;28;20058;-48
2022/03/26 04:43:13;;;;;;;30.50;18.25;;;;;;;8.36;63.86;103033.88;5033646;28;20048;-47
2022/03/26 04:45:41;;;;;;;32.22;17.60;;;;;;;8.30;63.59;103038.22;5033999;28;20094;-47
2022/03/26 04:48:11;;;;;;;31.92;17.60;;;;;;;8.30;63.59;103035.50;5033054;28;20049;-46
2022/03/26 04:50:38;;;;;;;31.67;17.92;;;;;;;8.35;63.22;103033.03;5033680;28;20047;-47
2022/03/26 04:53:06;;;;;;;34.90;18.48;;;;;;;8.32;63.18;103038.84;5035032;28;20052;-50
2022/03/26 04:55:34;;;;;;;30.52;18.40;;;;;;;8.28;63.33;103037.59;5033574;28;20054;-46
2022/03/26 04:58:01;;;;;;;28.90;17.02;;;;;;;8.30;63.32;103040.94;5016689;28;20045;-46
2022/03/26 05:00:29;;;;;;;30.58;18.13;;;;;;;8.22;63.16;103039.19;5032718;28;20042;-48
2022/03/26 05:02:57;;;;;;;29.02;17.52;;;;;;;8.11;64.14;103040.59;5035011;28;20403;-48
2022/03/26 05:05:24;;;;;;;31.02;18.15;;;;;;;8.14;64.12;103042.06;5048087;28;20087;-47
2022/03/26 05:07:55;;;;;;;33.97;17.75;;;;;;;8.06;63.69;103037.63;5052144;28;20048;-49
2022/03/26 05:10:27;;;;;;;34.80;19.92;;;;;;;7.99;64.82;103044.88;5040743;28;20107;-51
2022/03/26 05:12:56;;;;;;;32.80;18.65;;;;;;;8.00;64.60;103045.72;5016692;28;20052;-47
2022/03/26 05:15:26;;;;;;;37.88;20.42;;;;;;;7.96;64.10;103039.84;5034310;28;20048;-49
2022/03/26 05:17:56;;;;;;;32.97;18.60;;;;;;;7.95;64.12;103043.56;5033398;28;20049;-52
2022/03/26 05:20:24;;;;;;;35.65;19.05;;;;;;;7.92;64.11;103054.84;5032233;28;20046;-49
2022/03/26 05:22:52;;;;;;;32.60;18.85;;;;;;;7.91;64.78;103055.84;5037905;28;20045;-50
2022/03/26 05:25:20;;;;;;;34.85;20.38;;;;;;;7.89;64.89;103066.09;5044962;28;20045;-49
2022/03/26 05:27:52;;;;;;;34.92;19.80;;;;;;;7.92;64.78;103060.25;5033213;28;20403;-52
2022/03/26 05:30:21;;;;;;;39.95;21.58;;;;;;;7.81;64.46;103066.19;5033187;28;20041;-50
2022/03/26 05:32:49;;;;;;;38.33;20.50;;;;;;;7.61;65.52;103066.84;5033203;28;20046;-50
2022/03/26 05:35:18;;;;;;;37.05;20.33;;;;;;;7.52;65.77;103067.16;5035013;28;20049;-47
2022/03/26 05:37:50;;;;;;;35.25;20.50;;;;;;;7.50;66.58;103072.78;5053002;28;20480;-49
2022/03/26 05:40:19;;;;;;;36.50;20.83;;;;;;;7.41;66.59;103063.09;5050109;28;20124;-49
2022/03/26 05:42:48;;;;;;;31.70;20.67;;;;;;;7.39;67.24;103070.59;5051783;28;20041;-50
2022/03/26 05:45:16;;;;;;;40.83;21.33;;;;;;;7.48;66.57;103069.44;5052079;28;20041;-50
2022/03/26 05:47:43;;;;;;;35.88;21.10;;;;;;;7.64;65.74;103062.91;5036434;28;20041;-50
2022/03/26 05:50:12;;;;;;;35.47;21.75;;;;;;;7.85;64.73;103067.50;5033121;28;20042;-49
2022/03/26 05:52:40;;;;;;;39.95;21.25;;;;;;;7.90;64.99;103073.19;5034049;28;20050;-50
2022/03/26 05:55:08;;;;;;;35.78;20.77;;;;;;;7.81;65.43;103063.50;5037156;28;20045;-51
2022/03/26 05:57:36;;;;;;;38.85;21.65;;;;;;;7.80;64.84;103068.09;5053000;28;20041;-48
2022/03/26 06:00:05;;;;;;;38.78;22.42;;;;;;;7.84;64.78;103068.53;5050239;28;20502;-52
2022/03/26 06:02:34;;;;;;;37.95;22.92;;;;;;;7.85;65.15;103075.66;5050384;28;20053;-54
2022/03/26 06:05:02;;;;;;;36.38;22.52;;;;;;;7.92;64.34;103076.56;5052474;28;20055;-52
2022/03/26 06:07:30;;;;;;;36.47;22.30;;;;;;;8.00;64.81;103079.13;5051934;28;20041;-50
2022/03/26 06:09:58;;;;;;;33.53;21.65;;;;;;;8.03;64.03;103084.19;5052852;28;20049;-50
2022/03/26 06:12:26;;;;;;;47.38;23.88;;;;;;;7.92;65.15;103084.69;5049851;28;20041;-51
2022/03/26 06:14:53;;;;;;;36.08;22.40;;;;;;;7.83;65.30;103088.56;5040218;28;20049;-49
2022/03/26 06:17:22;;;;;;;43.50;22.90;;;;;;;7.80;66.02;103099.81;5031471;28;20417;-49
2022/03/26 06:19:49;;;;;;;38.38;23.20;;;;;;;7.74;65.96;103097.88;5035461;28;20116;-56
2022/03/26 06:22:17;;;;;;;39.83;23.23;;;;;;;7.63;66.91;103110.06;5052731;28;20523;-54
2022/03/26 06:24:44;;;;;;;34.70;21.98;;;;;;;7.60;66.69;103100.44;5052202;28;20091;-49
2022/03/26 06:27:12;;;;;;;31.83;20.85;;;;;;;7.71;66.62;103100.97;5051860;28;20410;-51
2022/03/26 06:29:40;;;;;;;33.90;21.90;;;;;;;7.87;65.62;103100.72;5051799;28;20049;-48
2022/03/26 06:32:08;;;;;;;36.05;22.98;;;;;;;7.88;65.34;103096.97;5049742;28;20037;-49
2022/03/26 06:34:35;;;;;;;35.10;22.45;;;;;;;7.84;66.28;103104.66;5041589;28;20037;-54
2022/03/26 06:37:03;;;;;;;50.17;23.80;;;;;;;7.89;65.82;103104.09;5031578;28;20040;-52
2022/03/26 06:39:31;;;;;;;38.50;23.55;;;;;;;7.89;65.84;103101.38;5034570;28;20049;-51
2022/03/26 06:41:58;;;;;;;41.70;21.80;;;;;;;7.86;65.25;103102.59;5051216;28;20385;-53
2022/03/26 06:44:26;;;;;;;41.83;23.77;;;;;;;7.94;65.76;103104.34;5048354;28;20041;-52
2022/03/26 06:46:54;;;;;;;39.83;24.60;;;;;;;7.97;65.47;103106.66;5035964;28;20041;-50
2022/03/26 06:49:21;;;;;;;42.70;23.98;;;;;;;8.01;64.85;103099.81;5032809;28;20053;-54
2022/03/26 06:51:49;;;;;;;38.20;23.50;;;;;;;8.07;65.11;103104.44;5034064;28;20480;-53
2022/03/26 06:54:17;;;;;;;38.67;23.73;;;;;;;8.13;64.53;103104.69;5040943;28;20045;-56
2022/03/26 06:56:45;;;;;;;40.03;24.63;;;;;;;8.20;65.38;103105.59;5052602;28;20071;-56
2022/03/26 06:59:18;;;;;;;39.85;26.67;;;;;;;8.23;65.19;103103.34;5033286;28;20084;-54
2022/03/26 07:01:45;;;;;;;44.65;25.48;;;;;;;8.27;64.33;103106.50;5053276;28;20051;-55
2022/03/26 07:04:17;;;;;;;42.20;24.08;;;;;;;8.33;65.09;103111.16;5056100;28;20064;-56
2022/03/26 07:06:45;;;;;;;42.13;24.40;;;;;;;8.49;64.31;103105.47;5056135;28;20119;-53
2022/03/26 07:09:13;;;;;;;41.53;24.70;;;;;;;8.54;63.93;103107.59;5056011;28;20045;-52
2022/03/26 07:11:40;;;;;;;36.20;22.55;;;;;;;8.60;64.01;103112.22;5054628;28;20045;-54
2022/03/26 07:14:08;;;;;;;42.05;23.33;;;;;;;8.65;63.38;103108.91;5055925;28;20047;-55
2022/03/26 07:16:36;;;;;;;41.15;24.33;;;;;;;8.66;63.07;103119.59;5055754;28;20044;-52
2022/03/26 07:19:03;;;;;;;41.03;23.90;;;;;;;8.71;62.94;103119.00;5052975;28;20052;-55
2022/03/26 07:21:32;;;;;;;40.63;23.60;;;;;;;8.78;63.13;103117.16;5036057;28;20038;-54
2022/03/26 07:23:59;;;;;;;47.60;25.65;;;;;;;8.85;62.65;103119.91;5035778;28;20038;-55
2022/03/26 07:26:27;;;;;;;46.65;26.13;;;;;;;8.89;62.94;103110.31;5035944;28;20044;-55
2022/03/26 07:28:57;;;;;;;43.85;24.13;;;;;;;8.93;62.41;103123.31;5035776;28;20128;-57
2022/03/26 07:31:25;;;;;;;40.03;24.65;;;;;;;9.02;62.15;103121.28;5036785;28;20042;-55
2022/03/26 07:33:53;;;;;;;43.03;24.15;;;;;;;9.11;61.89;103125.50;5035733;28;20065;-56
2022/03/26 07:36:21;;;;;;;35.35;22.45;;;;;;;9.15;61.44;103125.94;5034514;28;20041;-54
2022/03/26 07:38:49;;;;;;;37.25;22.23;;;;;;;9.22;61.67;103121.38;5037811;28;20488;-50
2022/03/26 07:41:17;;;;;;;41.60;23.73;;;;;;;9.28;61.59;103127.88;5055240;28;20044;-51
2022/03/26 07:43:45;;;;;;;41.80;21.92;;;;;;;9.34;61.91;103119.75;5049974;28;20034;-52
2022/03/26 07:46:14;;;;;;;36.85;21.98;;;;;;;9.38;61.17;103125.63;5043056;28;20041;-54
2022/03/26 07:48:42;;;;;;;36.45;21.77;;;;;;;9.42;61.29;103123.34;5041708;28;20522;-53
2022/03/26 07:51:09;;;;;;;34.70;21.08;;;;;;;9.48;61.20;103120.66;5036476;28;20046;-51
2022/03/26 07:53:37;;;;;;;40.17;21.25;;;;;;;9.52;60.58;103121.06;5035711;28;20045;-50
2022/03/26 07:56:04;;;;;;;36.42;19.98;;;;;;;9.54;60.05;103118.97;5035448;28;20061;-50
2022/03/26 07:58:32;;;;;;;38.63;20.92;;;;;;;9.56;60.39;103120.44;5037527;28;20045;-54
2022/03/26 08:01:00;;;;;;;34.78;21.75;;;;;;;9.59;60.15;103124.63;5053569;28;20045;-52
2022/03/26 08:03:28;;;;;;;39.83;21.65;;;;;;;9.65;59.74;103125.72;5053786;28;20055;-52
2022/03/26 08:05:56;;;;;;;38.72;20.75;;;;;;;9.69;60.12;103138.72;5054923;28;20115;-54
2022/03/26 08:08:25;;;;;;;32.75;20.02;;;;;;;9.74;59.72;103138.94;5054542;28;20049;-56
2022/03/26 08:10:53;;;;;;;36.75;21.83;;;;;;;9.77;59.62;103135.81;5053319;28;20052;-53
2022/03/26 08:13:20;;;;;;;36.63;20.23;;;;;;;9.82;60.34;103146.06;5053754;28;20167;-54
2022/03/26 08:15:51;;;;;;;37.05;22.95;;;;;;;9.85;59.93;103144.81;5040722;28;20041;-49
2022/03/26 08:18:19;;;;;;;41.95;24.45;;;;;;;9.89;60.49;103148.81;5051777;28;20077;-54
2022/03/26 08:20:47;;;;;;;42.72;24.23;;;;;;;9.93;60.83;103150.94;5034568;28;20484;-56
2022/03/26 08:23:14;;;;;;;40.50;22.80;;;;;;;9.99;60.90;103154.69;5034895;28;20067;-55
2022/03/26 08:28:28;;;;;;;42.47;23.63;;;;;;;10.08;60.00;103163.50;5052516;28;20419;-53
2022/03/26 08:30:56;;;;;;;37.40;22.70;;;;;;;10.11;59.85;103158.50;5053974;28;20041;-52
2022/03/26 08:33:23;;;;;;;38.97;22.27;;;;;;;10.15;59.93;103167.94;5054605;28;20041;-53
2022/03/26 08:35:51;;;;;;;40.53;23.35;;;;;;;10.23;59.88;103162.28;5052384;28;20044;-53
2022/03/26 08:38:18;;;;;;;42.05;22.63;;;;;;;10.34;59.35;103169.03;5034075;28;20442;-52
2022/03/26 08:40:47;;;;;;;45.13;23.38;;;;;;;10.48;58.81;103169.84;5034510;28;20049;-52
2022/03/26 08:43:15;;;;;;;36.17;20.20;;;;;;;10.56;58.61;103172.41;5034286;28;20049;-54
2022/03/26 08:45:43;;;;;;;35.15;21.10;;;;;;;10.62;58.45;103174.25;5034344;28;20050;-53
2022/03/26 08:48:11;;;;;;;44.45;25.85;;;;;;;10.62;58.86;103171.53;5034195;28;20073;-54
2022/03/26 08:50:39;;;;;;;41.75;22.27;;;;;;;10.65;58.93;103178.44;5034182;28;20098;-52
2022/03/26 08:53:06;;;;;;;36.45;19.00;;;;;;;10.74;59.23;103171.75;5039817;28;20037;-55
2022/03/26 08:55:34;;;;;;;39.15;21.42;;;;;;;10.79;58.80;103166.50;5035059;28;20092;-54
2022/03/26 08:58:03;;;;;;;40.25;22.58;;;;;;;10.81;59.23;103163.56;5016668;28;20073;-49
2022/03/26 09:00:31;;;;;;;42.42;23.92;;;;;;;10.87;58.74;103165.41;5033987;28;20041;-52
2022/03/26 09:02:58;;;;;;;36.13;21.15;;;;;;;10.98;58.33;103167.50;5033791;28;20076;-52
2022/03/26 09:05:26;;;;;;;46.78;26.30;;;;;;;11.00;58.40;103173.59;5032447;28;20046;-55
2022/03/26 09:07:55;;;;;;;40.47;24.05;;;;;;;11.03;57.96;103166.88;5034839;28;20041;-52
2022/03/26 09:10:22;;;;;;;46.00;23.17;;;;;;;11.05;58.10;103168.34;5032309;28;20136;-51
2022/03/26 09:12:50;;;;;;;42.08;22.20;;;;;;;11.16;57.83;103174.19;5033772;28;20042;-52
2022/03/26 09:15:18;;;;;;;42.13;23.00;;;;;;;11.17;57.92;103167.69;5049383;28;20407;-52
2022/03/26 09:17:45;;;;;;;42.53;24.48;;;;;;;11.29;58.06;103165.97;5053676;28;20048;-52
2022/03/26 09:20:13;;;;;;;38.92;23.38;;;;;;;11.40;57.07;103173.50;5051762;28;20041;-55
2022/03/26 09:22:41;;;;;;;37.67;22.60;;;;;;;11.50;56.02;103167.56;5053746;28;20037;-50
2022/03/26 09:25:09;;;;;;;35.47;21.25;;;;;;;11.51;55.79;103178.25;5054254;28;20472;-50
2022/03/26 09:27:36;;;;;;;43.67;21.38;;;;;;;11.55;56.19;103164.19;5053829;28;20492;-55
2022/03/26 09:30:06;;;;;;;32.20;18.80;;;;;;;11.59;55.64;103171.69;5053383;28;20587;-52
2022/03/26 09:32:35;;;;;;;42.58;20.30;;;;;;;11.70;55.17;103168.31;5051144;28;20041;-52
2022/03/26 09:35:04;;;;;;;38.00;19.50;;;;;;;11.69;55.20;103177.56;5053226;28;20045;-51
2022/03/26 09:37:31;;;;;;;30.55;15.70;;;;;;;11.80;55.34;103180.66;5053319;28;20049;-51
2022/03/26 09:39:59;;;;;;;27.52;15.95;;;;;;;11.84;54.86;103173.72;5047785;28;20132;-51
2022/03/26 09:42:27;;;;;;;28.38;15.70;;;;;;;12.00;53.17;103175.97;5051096;28;20120;-56
2022/03/26 09:44:57;;;;;;;35.70;16.95;;;;;;;12.16;52.63;103177.31;5035845;28;20129;-56
2022/03/26 09:47:25;;;;;;;26.02;14.77;;;;;;;12.24;51.52;103179.78;5050482;28;20451;-56
2022/03/26 09:49:53;;;;;;;30.55;16.55;;;;;;;12.28;50.89;103175.53;5033635;28;20045;-51
2022/03/26 09:52:20;;;;;;;32.80;17.38;;;;;;;12.37;50.51;103170.66;5033090;28;20038;-51
2022/03/26 09:54:48;;;;;;;35.15;17.42;;;;;;;12.44;49.75;103173.34;5033234;28;20140;-49
2022/03/26 09:57:16;;;;;;;42.17;18.52;;;;;;;12.47;50.12;103172.88;5046273;28;20505;-56
2022/03/26 09:59:44;;;;;;;31.17;16.33;;;;;;;12.41;50.04;103169.16;5039851;28;20041;-56
2022/03/26 10:02:12;;;;;;;35.15;17.08;;;;;;;12.43;50.93;103163.44;5032370;28;20542;-51
2022/03/26 10:04:41;;;;;;;36.25;18.70;;;;;;;12.42;51.40;103159.88;5039613;28;20071;-54
2022/03/26 10:07:09;;;;;;;34.17;18.52;;;;;;;12.50;51.67;103164.22;5036357;28;20491;-55
2022/03/26 10:09:38;;;;;;;37.33;18.15;;;;;;;12.61;51.83;103162.66;5039647;28;20056;-54
2022/03/26 10:12:17;;;;;;;40.15;20.15;;;;;;;12.74;51.90;103163.38;5044128;28;20053;-55
2022/03/26 10:14:58;;;;;;;43.75;21.40;;;;;;;12.82;52.12;103161.41;5043645;28;20040;-55
2022/03/26 10:17:29;;;;;;;37.15;20.70;;;;;;;12.81;53.11;103167.94;5035435;28;20044;-55
2022/03/26 10:20:02;;;;;;;40.50;21.35;;;;;;;12.81;52.84;103162.47;5041348;28;20065;-56
2022/03/26 10:22:30;;;;;;;38.70;21.98;;;;;;;12.88;53.66;103160.50;5046440;28;20049;-55
2022/03/26 10:25:13;;;;;;;41.90;22.23;;;;;;;12.89;53.43;103157.56;5041015;28;20045;-53
2022/03/26 10:27:47;;;;;;;39.50;22.65;;;;;;;12.83;53.63;103161.19;5048399;28;20044;-55
2022/03/26 10:30:17;;;;;;;43.35;23.13;;;;;;;12.83;54.10;103149.41;5039020;28;20107;-52
2022/03/26 10:32:48;;;;;;;40.67;22.63;;;;;;;12.86;54.55;103155.25;5033745;28;20038;-55
2022/03/26 10:35:19;;;;;;;38.38;22.05;;;;;;;12.90;55.27;103150.19;5037716;28;20041;-53
2022/03/26 10:37:56;;;;;;;44.78;23.83;;;;;;;13.01;55.59;103149.41;5052744;28;20033;-55
2022/03/26 10:40:31;;;;;;;43.90;24.15;;;;;;;13.14;54.48;103141.06;5053125;28;20399;-48
2022/03/26 10:43:08;;;;;;;35.20;20.38;;;;;;;13.14;55.31;103140.22;5047111;28;20084;-54
2022/03/26 10:45:47;;;;;;;50.55;29.58;;;;;;;13.18;55.31;103147.75;5044012;28;20055;-53
2022/03/26 10:48:15;;;;;;;43.80;24.77;;;;;;;13.40;54.95;103139.94;5048338;28;20048;-52
2022/03/26 10:50:44;;;;;;;38.30;23.75;;;;;;;13.40;54.81;103141.84;5039232;28;20131;-56
2022/03/26 10:53:15;;;;;;;39.17;22.90;;;;;;;13.53;54.30;103138.09;5045414;28;20048;-52
2022/03/26 10:55:43;;;;;;;29.95;17.42;;;;;;;13.52;55.02;103137.25;5046070;28;20092;-51
2022/03/26 10:58:11;;;;;;;29.55;16.20;;;;;;;13.48;55.00;103136.03;5037261;28;20052;-51
2022/03/26 11:00:39;;;;;;;31.00;16.35;;;;;;;13.49;55.61;103137.69;5047054;28;20119;-55
2022/03/26 11:03:07;;;;;;;25.10;14.63;;;;;;;13.56;55.13;103132.16;5039007;28;20132;-55
2022/03/26 11:05:35;;;;;;;21.27;12.75;;;;;;;13.51;55.10;103132.84;5031386;28;20045;-55
2022/03/26 11:08:03;;;;;;;22.08;12.15;;;;;;;13.47;54.70;103134.38;5048324;28;20094;-55
2022/03/26 11:10:31;;;;;;;22.15;12.15;;;;;;;13.45;55.50;103120.09;5038324;28;20051;-53
2022/03/26 11:13:01;;;;;;;22.50;11.68;;;;;;;13.44;55.38;103123.88;5044926;28;20037;-56
2022/03/26 11:15:38;;;;;;;21.50;14.02;;;;;;;13.45;55.40;103125.56;5043781;28;20033;-54
2022/03/26 11:18:32;;;;;;;24.70;13.63;;;;;;;13.52;55.78;103123.56;5041548;28;20465;-55
2022/03/26 11:21:20;;;;;;;21.38;12.88;;;;;;;13.75;55.17;103121.97;5046198;28;20508;-54
2022/03/26 11:24:24;;;;;;;21.48;13.68;;;;;;;13.81;54.61;103116.41;5021493;28;10000706;-51